Aquashicola, Pennsylvania
Current Conditions -  °F | °C
As of 4:51 PM on Friday 28 Nov 2014 (Local Time) from KABE Reporting Station
Clear Clear  
Wind Chill: 31°   Ceiling: Unl
Heat Index: 31°   Visibility: 10mi
Dew Point: 13°   Wind: 3mph
Humidity: 47%   Direction: 270°W
Pressure: 30.22"   Gusts: NA
Location:  40.81°N, 75.59°W
Report Text: KABE 282151Z 27003KT 10SM CLR M01/M11 A3022 RMK AO2 SLP238 T10061106 $
Loading
Personal Weather Stations






























Interactive Weather Map New forecast layout! Learn more

10-Day Weather Forecast

Advertisements
Track Severe Weather on mobile